createdAt,value
2022-10-30T00:01:30.923Z,98095.69
2022-10-30T00:03:57.606Z,98089.53
2022-10-30T00:06:24.218Z,98089.78
2022-10-30T00:08:50.821Z,98089.25
2022-10-30T00:11:17.433Z,98096.38
2022-10-30T00:13:44.067Z,98094.00
2022-10-30T00:16:10.685Z,98097.78
2022-10-30T00:18:37.298Z,98086.34
2022-10-30T00:21:03.953Z,98089.28
2022-10-30T00:23:30.565Z,98084.44
2022-10-30T00:25:57.187Z,98088.16
2022-10-30T00:28:23.773Z,98085.13
2022-10-30T00:30:50.390Z,98083.81
2022-10-30T00:33:16.984Z,98076.59
2022-10-30T00:35:43.652Z,98077.06
2022-10-30T00:38:10.325Z,98072.50
2022-10-30T00:40:36.916Z,98071.09
2022-10-30T00:43:03.512Z,98064.38
2022-10-30T00:45:30.128Z,98069.06
2022-10-30T00:47:57.093Z,98070.50
2022-10-30T00:50:23.973Z,98071.84
2022-10-30T00:52:50.622Z,98071.41
2022-10-30T00:55:17.279Z,98067.41
2022-10-30T00:57:43.931Z,98073.34
2022-10-30T01:00:10.522Z,98058.25
2022-10-30T01:02:37.306Z,98068.28
2022-10-30T01:05:04.063Z,98064.75
2022-10-30T01:07:30.713Z,98059.03
2022-10-30T01:09:57.323Z,98055.03
2022-10-30T01:12:23.955Z,98052.09
2022-10-30T01:14:50.541Z,98049.25
2022-10-30T01:17:17.167Z,98050.47
2022-10-30T01:19:43.758Z,98053.19
2022-10-30T01:22:12.264Z,98044.53
2022-10-30T01:24:38.882Z,98044.34
2022-10-30T01:27:05.517Z,98048.53
2022-10-30T01:29:32.109Z,98044.53
2022-10-30T01:31:58.709Z,98041.38
2022-10-30T01:34:25.338Z,98041.72
2022-10-30T01:36:51.976Z,98039.50
2022-10-30T01:39:18.597Z,98042.94
2022-10-30T01:41:45.220Z,98039.72
2022-10-30T01:44:11.838Z,98037.25
2022-10-30T01:46:38.461Z,98033.56
2022-10-30T01:49:05.107Z,98041.63
2022-10-30T01:51:31.722Z,98036.94
2022-10-30T01:53:58.347Z,98027.19
2022-10-30T01:56:24.930Z,98026.00
2022-10-30T01:58:51.577Z,98022.31
2022-10-30T02:01:18.248Z,98032.44
2022-10-30T02:03:44.971Z,98025.56
2022-10-30T02:06:11.593Z,98027.31
2022-10-30T02:08:38.198Z,98029.16
2022-10-30T02:11:04.857Z,98016.72
2022-10-30T02:13:31.474Z,98020.19
2022-10-30T02:15:58.063Z,98022.00
2022-10-30T02:18:24.723Z,98023.13
2022-10-30T02:20:51.362Z,98015.91
2022-10-30T02:23:17.995Z,98010.88
2022-10-30T02:25:44.581Z,98009.44
2022-10-30T02:28:11.227Z,98016.06
2022-10-30T02:30:37.844Z,98006.53
2022-10-30T02:33:04.518Z,98008.78
2022-10-30T02:35:31.231Z,98018.59
2022-10-30T02:37:57.993Z,98017.03
2022-10-30T02:40:24.917Z,98015.81
2022-10-30T02:42:51.606Z,98013.97
2022-10-30T02:45:18.196Z,98009.03
2022-10-30T02:47:44.821Z,98004.78
2022-10-30T02:50:11.425Z,98000.50
2022-10-30T02:52:38.046Z,98010.00
2022-10-30T02:55:04.633Z,98004.09
2022-10-30T02:57:31.244Z,98006.53
2022-10-30T02:59:57.979Z,98007.38
2022-10-30T03:02:24.584Z,98011.53
2022-10-30T03:04:51.248Z,98008.50
2022-10-30T03:07:17.861Z,98003.09
2022-10-30T03:09:44.451Z,98005.34
2022-10-30T03:12:11.087Z,98013.16
2022-10-30T03:14:37.730Z,98009.91
2022-10-30T03:17:04.337Z,98015.41
2022-10-30T03:19:30.938Z,98015.09
2022-10-30T03:21:57.555Z,98012.34
2022-10-30T03:24:24.183Z,98008.78
2022-10-30T03:26:50.772Z,98016.19
2022-10-30T03:29:17.410Z,98018.72
2022-10-30T03:31:43.998Z,98018.72
2022-10-30T03:34:10.627Z,98006.50
2022-10-30T03:36:37.225Z,98011.91
2022-10-30T03:39:03.814Z,98015.75
2022-10-30T03:41:30.421Z,98014.41
2022-10-30T03:43:57.056Z,98014.63
2022-10-30T03:46:23.641Z,98015.09
2022-10-30T03:48:50.254Z,98015.91
2022-10-30T03:51:16.880Z,98014.63
2022-10-30T03:53:43.482Z,98019.44
2022-10-30T03:56:11.025Z,98014.84
2022-10-30T03:58:37.633Z,98012.25
2022-10-30T04:01:04.321Z,98003.56
2022-10-30T04:03:31.022Z,97995.56
2022-10-30T04:05:57.646Z,98001.41
2022-10-30T04:08:24.249Z,98000.09
2022-10-30T04:10:50.898Z,97995.88
2022-10-30T04:13:17.562Z,98003.94
2022-10-30T04:15:44.156Z,98001.44
2022-10-30T04:18:10.784Z,98005.28
2022-10-30T04:20:37.373Z,97994.28
2022-10-30T04:23:03.990Z,97998.38
2022-10-30T04:25:30.611Z,97995.41
2022-10-30T04:27:57.438Z,98003.06
2022-10-30T04:30:24.327Z,98000.13
2022-10-30T04:32:50.912Z,97999.28
2022-10-30T04:35:17.551Z,98001.72
2022-10-30T04:37:44.162Z,97993.59
2022-10-30T04:40:10.797Z,97994.28
2022-10-30T04:42:37.396Z,97997.81
2022-10-30T04:45:04.948Z,97985.88
2022-10-30T04:50:03.341Z,97990.09
2022-10-30T04:52:29.944Z,97991.91
2022-10-30T04:54:56.555Z,97999.75
2022-10-30T04:57:23.165Z,97989.50
2022-10-30T04:59:49.825Z,97986.50
2022-10-30T05:02:16.632Z,97990.59
2022-10-30T05:04:43.402Z,97987.22
2022-10-30T05:07:10.036Z,97983.97
2022-10-30T05:09:36.645Z,97992.72
2022-10-30T05:12:03.236Z,97994.16
2022-10-30T05:14:29.865Z,97989.56
2022-10-30T05:16:56.486Z,97989.06
2022-10-30T05:19:23.133Z,97990.75
2022-10-30T05:21:49.749Z,97989.72
2022-10-30T05:24:16.349Z,97990.59
2022-10-30T05:26:42.986Z,97983.09
2022-10-30T05:29:09.569Z,97988.72
2022-10-30T05:31:36.224Z,97986.38
2022-10-30T05:34:06.324Z,97984.59
2022-10-30T05:36:34.368Z,97984.59
2022-10-30T05:39:01.004Z,97982.69
2022-10-30T05:41:27.615Z,97984.59
2022-10-30T05:43:54.227Z,97991.78
2022-10-30T05:46:20.846Z,97994.00
2022-10-30T05:48:47.433Z,97987.88
2022-10-30T05:51:14.023Z,97993.78
2022-10-30T05:53:40.642Z,97998.06
2022-10-30T05:56:07.262Z,97997.09
2022-10-30T05:58:33.846Z,97993.41
2022-10-30T06:01:00.484Z,97992.56
2022-10-30T06:03:27.066Z,97982.81
2022-10-30T06:05:53.657Z,98006.66
2022-10-30T06:08:20.278Z,97997.91
2022-10-30T06:10:46.869Z,97999.25
2022-10-30T06:13:13.492Z,98002.19
2022-10-30T06:15:40.083Z,98007.47
2022-10-30T06:18:06.692Z,98011.94
2022-10-30T06:20:33.286Z,98004.25
2022-10-30T06:23:00.037Z,98004.09
2022-10-30T06:25:26.704Z,98009.47
2022-10-30T06:27:53.329Z,98016.72
2022-10-30T06:30:19.945Z,98017.28
2022-10-30T06:32:46.562Z,98024.59
2022-10-30T06:35:13.197Z,98021.94
2022-10-30T06:37:39.796Z,98013.91
2022-10-30T06:40:06.390Z,98018.16
2022-10-30T06:42:33.011Z,98017.50
2022-10-30T06:44:59.630Z,98016.47
2022-10-30T06:47:26.260Z,98016.72
2022-10-30T06:49:52.857Z,98013.56
2022-10-30T06:52:19.485Z,98017.25
2022-10-30T06:54:46.097Z,98004.41
2022-10-30T06:57:12.714Z,98015.50
2022-10-30T06:59:39.315Z,98019.22
2022-10-30T07:02:07.106Z,98006.00
2022-10-30T07:04:36.795Z,98011.88
2022-10-30T07:07:03.430Z,98014.75
2022-10-30T07:09:30.045Z,98021.47
2022-10-30T07:11:57.038Z,98025.00
2022-10-30T07:14:23.938Z,98026.44
2022-10-30T07:16:50.590Z,98027.44
2022-10-30T07:19:17.176Z,98026.88
2022-10-30T07:21:43.781Z,98033.19
2022-10-30T07:24:10.396Z,98032.56
2022-10-30T07:26:36.985Z,98031.34
2022-10-30T07:29:03.578Z,98041.53
2022-10-30T07:31:42.467Z,98042.66
2022-10-30T07:34:16.197Z,98039.88
2022-10-30T07:36:42.844Z,98042.47
2022-10-30T07:39:09.433Z,98044.91
2022-10-30T07:41:36.050Z,98041.84
2022-10-30T07:44:02.641Z,98040.75
2022-10-30T07:46:29.348Z,98034.94
2022-10-30T07:48:55.947Z,98039.13
2022-10-30T07:51:22.602Z,98040.75
2022-10-30T07:53:49.274Z,98040.13
2022-10-30T07:56:15.899Z,98042.88
2022-10-30T07:58:45.469Z,98034.94
2022-10-30T08:01:12.568Z,98036.59
2022-10-30T08:03:39.230Z,98031.66
2022-10-30T08:06:05.852Z,98029.16
2022-10-30T08:08:32.531Z,98035.22
2022-10-30T08:10:59.150Z,98030.84
2022-10-30T08:13:25.756Z,98037.25
2022-10-30T08:15:52.399Z,98028.66
2022-10-30T08:18:19.009Z,98034.44
2022-10-30T08:20:45.675Z,98025.81
2022-10-30T08:23:12.329Z,98032.06
2022-10-30T08:25:38.922Z,98031.56
2022-10-30T08:28:05.547Z,98029.34
2022-10-30T08:30:32.410Z,98026.25
2022-10-30T08:32:59.341Z,98035.53
2022-10-30T08:35:26.348Z,98029.09
2022-10-30T08:37:53.002Z,98028.78
2022-10-30T08:40:19.624Z,98037.38
2022-10-30T08:42:46.287Z,98037.19
2022-10-30T08:45:12.888Z,98032.16
2022-10-30T08:47:39.502Z,98028.31
2022-10-30T08:50:06.096Z,98033.34
2022-10-30T08:52:32.692Z,98030.41
2022-10-30T08:54:59.347Z,98030.91
2022-10-30T08:57:25.969Z,98029.63
2022-10-30T08:59:52.615Z,98032.53
2022-10-30T09:02:19.541Z,98023.66
2022-10-30T09:04:46.258Z,98017.53
2022-10-30T09:07:13.215Z,98025.81
2022-10-30T09:09:39.912Z,98021.84
2022-10-30T09:12:06.525Z,98018.72
2022-10-30T09:14:33.237Z,98021.59
2022-10-30T09:16:59.842Z,98025.91
2022-10-30T09:19:26.500Z,98033.06
2022-10-30T09:21:53.167Z,98029.41
2022-10-30T09:24:19.793Z,98030.75
2022-10-30T09:26:46.410Z,98033.16
2022-10-30T09:29:13.131Z,98035.53
2022-10-30T09:31:39.775Z,98034.56
2022-10-30T09:34:06.417Z,98035.16
2022-10-30T09:36:33.026Z,98036.06
2022-10-30T09:38:59.693Z,98035.53
2022-10-30T09:41:26.339Z,98030.81
2022-10-30T09:46:37.029Z,98035.28
2022-10-30T09:49:03.721Z,98033.88
2022-10-30T09:51:30.338Z,98040.63
2022-10-30T09:53:57.006Z,98027.75
2022-10-30T09:56:23.642Z,98032.28
2022-10-30T09:58:50.287Z,98030.22
2022-10-30T10:01:16.934Z,98032.31
2022-10-30T10:03:43.745Z,98028.00
2022-10-30T10:06:10.423Z,98034.16
2022-10-30T10:08:37.046Z,98032.03
2022-10-30T10:11:03.711Z,98031.63
2022-10-30T10:13:30.339Z,98030.09
2022-10-30T10:15:56.963Z,98017.09
2022-10-30T10:18:23.685Z,98022.44
2022-10-30T10:20:50.330Z,98026.25
2022-10-30T10:23:16.956Z,98027.13
2022-10-30T10:25:43.584Z,98013.34
2022-10-30T10:28:10.206Z,98024.53
2022-10-30T10:30:36.808Z,98013.53
2022-10-30T10:33:03.444Z,98015.03
2022-10-30T10:35:30.093Z,98011.44
2022-10-30T10:37:57.002Z,98005.34
2022-10-30T10:40:23.836Z,98007.28
2022-10-30T10:42:50.451Z,98004.09
2022-10-30T10:45:17.085Z,98004.66
2022-10-30T10:47:43.693Z,97997.91
2022-10-30T10:50:10.286Z,97997.38
2022-10-30T10:52:36.911Z,97992.78
2022-10-30T10:55:03.492Z,97997.09
2022-10-30T10:57:30.140Z,97986.25
2022-10-30T10:59:56.779Z,97974.81
2022-10-30T11:02:23.493Z,97977.47
2022-10-30T11:04:50.212Z,97979.75
2022-10-30T11:07:16.834Z,97990.56
2022-10-30T11:09:43.477Z,97976.69
2022-10-30T11:12:10.103Z,97978.97
2022-10-30T11:14:36.706Z,97969.97
2022-10-30T11:17:03.318Z,97976.81
2022-10-30T11:19:29.913Z,97970.28
2022-10-30T11:21:56.541Z,97980.81
2022-10-30T11:24:23.170Z,97974.53
2022-10-30T11:26:49.787Z,97973.78
2022-10-30T11:29:16.421Z,97965.91
2022-10-30T11:31:43.049Z,97972.13
2022-10-30T11:34:09.660Z,97966.63
2022-10-30T11:36:36.290Z,97966.97
2022-10-30T11:39:02.933Z,97963.06
2022-10-30T11:41:29.546Z,97963.84
2022-10-30T11:43:56.164Z,97965.84
2022-10-30T11:46:22.758Z,97952.34
2022-10-30T11:48:49.415Z,97955.44
2022-10-30T11:51:16.044Z,97949.88
2022-10-30T11:53:42.704Z,97951.38
2022-10-30T11:56:09.327Z,97943.97
2022-10-30T11:58:35.912Z,97950.97
2022-10-30T12:01:02.534Z,97941.81
2022-10-30T12:03:29.165Z,97941.75
2022-10-30T12:05:55.778Z,97936.75
2022-10-30T12:08:22.369Z,97936.41
2022-10-30T12:10:49.011Z,97941.72
2022-10-30T12:13:15.616Z,97938.88
2022-10-30T12:15:42.233Z,97937.41
2022-10-30T12:18:08.846Z,97928.84
2022-10-30T12:20:35.440Z,97933.19
2022-10-30T12:23:02.242Z,97931.72
2022-10-30T12:25:28.936Z,97932.13
2022-10-30T12:27:55.550Z,97919.63
2022-10-30T12:30:22.132Z,97924.53
2022-10-30T12:32:48.787Z,97916.41
2022-10-30T12:35:15.511Z,97924.81
2022-10-30T12:37:42.130Z,97914.13
2022-10-30T12:40:08.749Z,97912.38
2022-10-30T12:42:35.372Z,97908.34
2022-10-30T12:45:06.266Z,97909.91
2022-10-30T12:47:32.959Z,97904.03
2022-10-30T12:49:59.602Z,97906.00
2022-10-30T12:52:26.212Z,97904.66
2022-10-30T12:54:52.853Z,97902.31
2022-10-30T12:57:19.458Z,97895.19
2022-10-30T12:59:46.049Z,97898.41
2022-10-30T13:02:12.843Z,97896.06
2022-10-30T13:04:39.686Z,97903.97
2022-10-30T13:07:06.284Z,97888.22
2022-10-30T13:09:32.937Z,97899.38
2022-10-30T13:11:59.522Z,97895.28
2022-10-30T13:14:26.172Z,97901.38
2022-10-30T13:16:52.764Z,97888.75
2022-10-30T13:19:19.406Z,97891.44
2022-10-30T13:21:46.024Z,97884.03
2022-10-30T13:24:12.641Z,97882.34
2022-10-30T13:26:39.266Z,97888.78
2022-10-30T13:29:05.865Z,97886.03
2022-10-30T13:31:32.444Z,97882.38
2022-10-30T13:33:59.196Z,97883.03
2022-10-30T13:36:25.809Z,97883.47
2022-10-30T13:38:52.399Z,97888.22
2022-10-30T13:41:19.051Z,97881.00
2022-10-30T13:43:45.669Z,97881.66
2022-10-30T13:46:12.302Z,97887.66
2022-10-30T13:48:38.919Z,97882.91
2022-10-30T13:51:05.529Z,97895.13
2022-10-30T13:53:32.140Z,97887.59
2022-10-30T13:55:58.758Z,97879.66
2022-10-30T13:58:25.373Z,97888.22
2022-10-30T14:00:51.965Z,97888.34
2022-10-30T14:03:18.578Z,97891.50
2022-10-30T14:05:45.174Z,97889.13
2022-10-30T14:08:11.797Z,97891.75
2022-10-30T14:10:38.387Z,97889.84
2022-10-30T14:13:05.098Z,97887.50
2022-10-30T14:15:31.726Z,97889.31
2022-10-30T14:17:58.399Z,97886.19
2022-10-30T14:20:25.021Z,97891.84
2022-10-30T14:22:51.613Z,97889.72
2022-10-30T14:25:18.249Z,97896.06
2022-10-30T14:27:44.865Z,97893.03
2022-10-30T14:30:11.588Z,97891.81
2022-10-30T14:32:38.239Z,97887.03
2022-10-30T14:35:04.939Z,97896.06
2022-10-30T14:37:31.536Z,97892.25
2022-10-30T14:39:58.147Z,97893.53
2022-10-30T14:42:24.760Z,97892.75
2022-10-30T14:44:51.419Z,97895.88
2022-10-30T14:47:18.037Z,97896.66
2022-10-30T14:49:44.665Z,97894.84
2022-10-30T14:52:11.254Z,97897.06
2022-10-30T14:54:37.916Z,97902.47
2022-10-30T14:57:04.515Z,97899.50
2022-10-30T14:59:31.129Z,97894.13
2022-10-30T15:01:57.890Z,97898.72
2022-10-30T15:04:24.599Z,97898.25
2022-10-30T15:06:51.246Z,97889.66
2022-10-30T15:09:17.844Z,97899.09
2022-10-30T15:11:44.472Z,97898.56
2022-10-30T15:14:20.932Z,97902.84
2022-10-30T15:16:48.456Z,97906.88
2022-10-30T15:19:15.056Z,97901.72
2022-10-30T15:21:41.670Z,97900.66
2022-10-30T15:24:08.285Z,97897.94
2022-10-30T15:26:34.910Z,97896.31
2022-10-30T15:29:01.536Z,97891.41
2022-10-30T15:31:28.182Z,97893.53
2022-10-30T15:33:54.778Z,97898.53
2022-10-30T15:36:21.395Z,97891.75
2022-10-30T15:38:48.018Z,97897.38
2022-10-30T15:41:14.612Z,97893.50
2022-10-30T15:43:41.245Z,97906.00
2022-10-30T15:46:07.882Z,97901.84
2022-10-30T15:48:34.505Z,97895.63
2022-10-30T15:51:01.111Z,97895.75
2022-10-30T15:53:27.746Z,97899.13
2022-10-30T15:55:54.342Z,97897.38
2022-10-30T15:58:21.023Z,97906.38
2022-10-30T16:00:47.620Z,97911.91
2022-10-30T16:03:14.251Z,97905.09
2022-10-30T16:05:40.853Z,97906.53
2022-10-30T16:08:07.488Z,97910.56
2022-10-30T16:10:34.087Z,97919.28
2022-10-30T16:13:01.008Z,97912.78
2022-10-30T16:15:27.972Z,97914.97
2022-10-30T16:17:56.924Z,97919.81
2022-10-30T16:20:23.764Z,97914.56
2022-10-30T16:22:50.382Z,97914.75
2022-10-30T16:25:16.996Z,97926.28
2022-10-30T16:27:43.631Z,97929.28
2022-10-30T16:30:10.260Z,97920.59
2022-10-30T16:32:36.883Z,97927.53
2022-10-30T16:35:03.513Z,97920.50
2022-10-30T16:37:30.144Z,97925.91
2022-10-30T16:39:56.773Z,97930.47
2022-10-30T16:42:23.381Z,97931.28
2022-10-30T16:44:50.017Z,97936.06
2022-10-30T16:47:16.697Z,97936.53
2022-10-30T16:49:45.708Z,97936.91
2022-10-30T16:52:15.263Z,97935.75
2022-10-30T16:54:41.861Z,97941.50
2022-10-30T16:57:08.525Z,97943.50
2022-10-30T16:59:35.118Z,97942.88
2022-10-30T17:02:01.906Z,97948.41
2022-10-30T17:04:28.659Z,97938.94
2022-10-30T17:06:55.283Z,97943.59
2022-10-30T17:09:22.167Z,97946.44
2022-10-30T17:11:48.870Z,97948.88
2022-10-30T17:14:15.509Z,97945.59
2022-10-30T17:16:42.108Z,97952.47
2022-10-30T17:19:08.743Z,97959.06
2022-10-30T17:21:35.333Z,97961.50
2022-10-30T17:24:01.975Z,97956.19
2022-10-30T17:26:28.607Z,97959.88
2022-10-30T17:28:55.263Z,97955.59
2022-10-30T17:31:22.109Z,97953.84
2022-10-30T17:33:48.785Z,97960.94
2022-10-30T17:36:15.418Z,97958.59
2022-10-30T17:38:42.165Z,97962.66
2022-10-30T17:41:08.827Z,97956.97
2022-10-30T17:43:35.511Z,97965.22
2022-10-30T17:46:02.150Z,97965.78
2022-10-30T17:48:28.790Z,97965.53
2022-10-30T17:50:55.418Z,97969.38
2022-10-30T17:53:22.050Z,97956.09
2022-10-30T17:55:51.664Z,97958.75
2022-10-30T17:58:20.996Z,97962.78
2022-10-30T18:00:47.640Z,97966.03
2022-10-30T18:03:14.355Z,97957.31
2022-10-30T18:05:40.980Z,97959.09
2022-10-30T18:08:07.573Z,97959.53
2022-10-30T18:10:34.195Z,97956.38
2022-10-30T18:13:01.179Z,97958.19
2022-10-30T18:15:28.144Z,97955.72
2022-10-30T18:17:54.744Z,97957.81
2022-10-30T18:20:21.362Z,97958.56
2022-10-30T18:22:47.979Z,97959.25
2022-10-30T18:25:14.634Z,97950.56
2022-10-30T18:27:41.283Z,97955.44
2022-10-30T18:30:07.881Z,97958.59
2022-10-30T18:32:34.515Z,97956.31
2022-10-30T18:35:01.120Z,97951.00
2022-10-30T18:37:27.766Z,97951.91
2022-10-30T18:39:54.388Z,97957.97
2022-10-30T18:42:21.000Z,97954.16
2022-10-30T18:44:47.675Z,97951.44
2022-10-30T18:47:14.383Z,97954.09
2022-10-30T18:49:40.990Z,97954.69
2022-10-30T18:52:07.585Z,97950.78
2022-10-30T18:54:34.192Z,97949.91
2022-10-30T18:57:00.823Z,97942.91
2022-10-30T18:59:27.987Z,97946.06
2022-10-30T19:01:54.710Z,97946.72
2022-10-30T19:04:22.591Z,97953.63
2022-10-30T19:06:49.472Z,97954.31
2022-10-30T19:09:16.094Z,97942.59
2022-10-30T19:11:44.516Z,97940.06
2022-10-30T19:14:11.308Z,97947.91
2022-10-30T19:16:37.952Z,97948.44
2022-10-30T19:19:04.574Z,97949.81
2022-10-30T19:21:31.192Z,97945.53
2022-10-30T19:23:57.803Z,97946.34
2022-10-30T19:26:24.456Z,97947.41
2022-10-30T19:28:51.105Z,97947.06
2022-10-30T19:31:17.727Z,97935.13
2022-10-30T19:33:44.379Z,97947.28
2022-10-30T19:36:11.007Z,97940.22
2022-10-30T19:38:37.602Z,97951.53
2022-10-30T19:41:04.249Z,97938.53
2022-10-30T19:43:30.852Z,97951.63
2022-10-30T19:45:57.467Z,97949.19
2022-10-30T19:48:55.389Z,97938.34
2022-10-30T19:51:10.757Z,97945.22
2022-10-30T19:53:37.406Z,97948.63
2022-10-30T19:56:04.015Z,97939.50
2022-10-30T19:58:30.635Z,97947.38
2022-10-30T20:00:57.407Z,97946.03
2022-10-30T20:03:24.072Z,97953.94
2022-10-30T20:05:50.697Z,97946.09
2022-10-30T20:08:17.325Z,97946.63
2022-10-30T20:10:44.004Z,97951.94
2022-10-30T20:13:10.627Z,97950.00
2022-10-30T20:15:37.278Z,97950.78
2022-10-30T20:18:03.878Z,97946.19
2022-10-30T20:20:30.506Z,97951.56
2022-10-30T20:22:57.118Z,97945.59
2022-10-30T20:25:23.753Z,97952.84
2022-10-30T20:27:50.407Z,97956.22
2022-10-30T20:30:17.063Z,97953.78
2022-10-30T20:32:43.668Z,97960.03
2022-10-30T20:35:11.303Z,97956.19
2022-10-30T20:37:38.139Z,97954.53
2022-10-30T20:40:04.773Z,97953.72
2022-10-30T20:42:36.844Z,97954.28
2022-10-30T20:45:03.848Z,97959.41
2022-10-30T20:47:30.477Z,97959.41
2022-10-30T20:49:57.094Z,97958.97
2022-10-30T20:52:23.730Z,97946.75
2022-10-30T20:54:50.402Z,97959.91
2022-10-30T20:57:17.083Z,97955.44
2022-10-30T20:59:43.703Z,97962.31
2022-10-30T21:02:10.453Z,97952.53
2022-10-30T21:04:37.163Z,97956.00
2022-10-30T21:07:03.753Z,97958.06
2022-10-30T21:09:30.379Z,97965.44
2022-10-30T21:11:56.969Z,97960.53
2022-10-30T21:14:23.588Z,97960.72
2022-10-30T21:16:50.199Z,97957.84
2022-10-30T21:19:16.828Z,97960.72
2022-10-30T21:21:43.451Z,97949.78
2022-10-30T21:24:10.078Z,97964.25
2022-10-30T21:26:36.678Z,97956.31
2022-10-30T21:29:03.301Z,97963.63
2022-10-30T21:31:29.935Z,97954.66
2022-10-30T21:33:56.538Z,97959.19
2022-10-30T21:36:23.145Z,97961.63
2022-10-30T21:38:49.776Z,97963.25
2022-10-30T21:41:16.404Z,97963.03
2022-10-30T21:43:42.990Z,97965.69
2022-10-30T21:46:09.583Z,97957.34
2022-10-30T21:48:36.200Z,97961.81
2022-10-30T21:51:02.789Z,97961.81
2022-10-30T21:53:29.407Z,97963.84
2022-10-30T21:55:56.003Z,97961.22
2022-10-30T21:58:22.615Z,97959.78
2022-10-30T22:00:49.304Z,97966.13
2022-10-30T22:03:16.068Z,97957.56
2022-10-30T22:05:42.687Z,97965.69
2022-10-30T22:08:09.305Z,97959.16
2022-10-30T22:10:35.945Z,97954.69
2022-10-30T22:13:02.631Z,97956.72
2022-10-30T22:15:29.270Z,97957.53
2022-10-30T22:17:55.975Z,97956.91
2022-10-30T22:20:22.722Z,97954.88
2022-10-30T22:22:49.348Z,97951.03
2022-10-30T22:25:15.971Z,97955.50
2022-10-30T22:27:42.597Z,97946.72
2022-10-30T22:30:09.370Z,97950.16
2022-10-30T22:32:35.956Z,97947.91
2022-10-30T22:35:02.580Z,97946.47
2022-10-30T22:37:29.198Z,97957.28
2022-10-30T22:39:55.787Z,97953.63
2022-10-30T22:42:22.378Z,97941.38
2022-10-30T22:44:48.999Z,97956.03
2022-10-30T22:47:15.602Z,97951.31
2022-10-30T22:49:42.232Z,97954.53
2022-10-30T22:52:08.824Z,97946.81
2022-10-30T22:54:35.411Z,97946.25
2022-10-30T22:57:02.025Z,97949.63
2022-10-30T22:59:28.640Z,97951.31
2022-10-30T23:01:55.343Z,97949.69
2022-10-30T23:04:22.020Z,97943.53
2022-10-30T23:06:48.604Z,97948.38
2022-10-30T23:09:15.191Z,97953.53
2022-10-30T23:11:41.807Z,97951.28
2022-10-30T23:14:08.433Z,97952.28
2022-10-30T23:16:35.070Z,97945.78
2022-10-30T23:19:01.669Z,97944.75
2022-10-30T23:21:28.314Z,97946.25
2022-10-30T23:23:54.946Z,97944.16
2022-10-30T23:26:21.558Z,97944.00
2022-10-30T23:28:48.209Z,97946.03
2022-10-30T23:31:14.833Z,97942.06
2022-10-30T23:33:41.431Z,97942.72
2022-10-30T23:36:08.070Z,97950.63
2022-10-30T23:38:34.665Z,97946.00
2022-10-30T23:41:01.286Z,97940.88
2022-10-30T23:43:27.919Z,97937.19
2022-10-30T23:45:54.517Z,97946.28
2022-10-30T23:48:21.136Z,97933.63
2022-10-30T23:50:47.763Z,97938.00
2022-10-30T23:53:14.378Z,97935.19
2022-10-30T23:55:40.973Z,97931.66
2022-10-30T23:58:07.644Z,97934.53
